Time;durP1;ratioP1;P1;durP2;ratioP2;P2;SDS_P1;SDS_P2;PMS_P1;PMS_P2;Temp;Humidity;BMP_temperature;BMP_pressure;BME280_temperature;BME280_humidity;BME280_pressure;Samples;Min_cycle;Max_cycle;Signal;HPM_P1;HPM_P2
2023/04/30 00:02:24;;;;;;;8.82;7.47;;;12.50;99.90;;;;;;5130190;28;20027;-69
2023/04/30 00:04:49;;;;;;;11.95;7.43;;;12.50;99.90;;;;;;5131295;28;20030;-69
2023/04/30 00:07:15;;;;;;;11.60;7.07;;;12.40;99.90;;;;;;5119478;28;20030;-70
2023/04/30 00:09:41;;;;;;;8.65;7.78;;;12.40;99.90;;;;;;5132502;28;20047;-70
2023/04/30 00:12:06;;;;;;;12.90;7.90;;;12.40;99.90;;;;;;5129713;28;20047;-70
2023/04/30 00:14:32;;;;;;;12.50;8.63;;;12.30;99.90;;;;;;5132652;28;20027;-69
2023/04/30 00:16:58;;;;;;;13.93;7.75;;;12.30;99.90;;;;;;5133072;27;20389;-70
2023/04/30 00:19:24;;;;;;;11.40;7.88;;;12.30;99.90;;;;;;5133778;27;20400;-69
2023/04/30 00:21:49;;;;;;;12.40;8.77;;;12.20;99.90;;;;;;5137239;27;20129;-70
2023/04/30 00:24:15;;;;;;;17.00;8.57;;;12.20;99.90;;;;;;5136658;27;20475;-69
2023/04/30 00:26:42;;;;;;;10.35;7.68;;;12.20;99.90;;;;;;5137005;27;20051;-70
2023/04/30 00:29:09;;;;;;;11.75;7.85;;;12.10;99.90;;;;;;5136400;27;20015;-71
2023/04/30 00:31:35;;;;;;;11.80;7.68;;;12.10;99.90;;;;;;5137028;27;20484;-70
2023/04/30 00:34:00;;;;;;;11.40;7.88;;;12.10;99.90;;;;;;5136869;27;20029;-70
2023/04/30 00:36:26;;;;;;;11.98;8.15;;;12.10;99.90;;;;;;5136492;27;20058;-70
2023/04/30 00:38:52;;;;;;;11.52;7.88;;;12.10;99.90;;;;;;5136958;27;20456;-69
2023/04/30 00:41:18;;;;;;;14.32;8.20;;;12.10;99.90;;;;;;5136555;27;20471;-69
2023/04/30 00:43:45;;;;;;;14.40;8.18;;;12.00;99.90;;;;;;5136214;27;20081;-69
2023/04/30 00:46:11;;;;;;;13.63;8.32;;;11.90;99.90;;;;;;5134659;27;20034;-69
2023/04/30 00:48:37;;;;;;;15.32;9.10;;;11.90;99.90;;;;;;5136569;27;20106;-70
2023/04/30 00:51:03;;;;;;;14.52;9.25;;;11.90;99.90;;;;;;5136450;27;20451;-69
2023/04/30 00:53:29;;;;;;;16.95;8.77;;;11.90;99.90;;;;;;5136080;27;20106;-70
2023/04/30 00:55:56;;;;;;;18.48;9.98;;;11.90;99.90;;;;;;5135742;27;20012;-69
2023/04/30 00:58:22;;;;;;;14.25;8.45;;;11.80;99.90;;;;;;5136214;27;20047;-69
2023/04/30 01:00:48;;;;;;;12.07;8.95;;;11.80;99.90;;;;;;5136623;27;20046;-69
2023/04/30 01:03:14;;;;;;;12.38;9.52;;;11.70;99.90;;;;;;5136419;27;20468;-69
2023/04/30 01:05:40;;;;;;;14.43;9.63;;;11.70;99.90;;;;;;5134821;27;20026;-69
2023/04/30 01:08:07;;;;;;;12.13;9.75;;;11.70;99.90;;;;;;5136356;27;20046;-69
2023/04/30 01:10:59;;;;;;;18.00;10.35;;;11.70;99.90;;;;;;5136421;27;20080;-69
2023/04/30 01:13:31;;;;;;;15.13;8.65;;;11.70;99.90;;;;;;5093864;27;20047;-69
2023/04/30 01:16:15;;;;;;;16.23;10.65;;;11.60;99.90;;;;;;5136031;27;20023;-70
2023/04/30 01:19:07;;;;;;;13.65;9.77;;;11.60;99.90;;;;;;5136380;27;20071;-70
2023/04/30 01:21:37;;;;;;;15.18;9.50;;;11.50;99.90;;;;;;5136168;27;20050;-69
2023/04/30 01:24:08;;;;;;;14.13;10.18;;;11.50;99.90;;;;;;5133842;27;20015;-70
2023/04/30 01:27:06;;;;;;;15.07;9.77;;;11.50;99.90;;;;;;5130544;27;20027;-69
2023/04/30 01:29:33;;;;;;;17.48;10.02;;;11.40;99.90;;;;;;5120162;27;20035;-70
2023/04/30 01:32:01;;;;;;;14.35;10.35;;;11.40;99.90;;;;;;5111959;28;20049;-70
2023/04/30 01:34:27;;;;;;;19.52;11.07;;;11.40;99.90;;;;;;5114436;28;20069;-70
2023/04/30 01:37:16;;;;;;;13.57;9.82;;;11.30;99.90;;;;;;5115024;28;20114;-70
2023/04/30 01:40:01;;;;;;;15.88;10.90;;;11.20;99.90;;;;;;5115134;28;20024;-70
2023/04/30 01:42:50;;;;;;;14.02;9.45;;;11.20;99.90;;;;;;5115217;27;20043;-69
2023/04/30 01:45:25;;;;;;;15.70;11.35;;;11.20;99.90;;;;;;5114775;28;20457;-69
2023/04/30 01:48:02;;;;;;;18.20;11.15;;;11.20;99.90;;;;;;5121625;27;20051;-69
2023/04/30 01:50:49;;;;;;;18.15;11.15;;;11.10;99.90;;;;;;5115086;27;20084;-69
2023/04/30 01:53:30;;;;;;;17.63;12.10;;;11.10;99.90;;;;;;5114758;28;20031;-69
2023/04/30 01:56:05;;;;;;;18.48;12.50;;;11.10;99.90;;;;;;5126724;27;20424;-70
2023/04/30 01:58:31;;;;;;;19.20;12.73;;;11.00;99.90;;;;;;5134355;27;20023;-69
2023/04/30 02:00:57;;;;;;;16.13;10.55;;;11.00;99.90;;;;;;5135192;27;20039;-70
2023/04/30 02:03:23;;;;;;;17.30;12.13;;;11.00;99.90;;;;;;5133745;27;20019;-70
2023/04/30 02:05:49;;;;;;;17.88;11.73;;;10.90;99.90;;;;;;5135047;27;20060;-69
2023/04/30 02:08:15;;;;;;;14.70;11.32;;;10.90;99.90;;;;;;5134556;27;20030;-69
2023/04/30 02:10:41;;;;;;;15.57;11.90;;;10.90;99.90;;;;;;5134673;27;20015;-70
2023/04/30 02:13:06;;;;;;;17.85;13.02;;;10.90;99.90;;;;;;5134971;27;20036;-69
2023/04/30 02:15:32;;;;;;;16.77;11.45;;;10.80;99.90;;;;;;5135073;27;20015;-70
2023/04/30 02:17:58;;;;;;;17.08;12.13;;;10.80;99.90;;;;;;5133490;27;20035;-71
2023/04/30 02:20:24;;;;;;;18.92;12.10;;;10.80;99.90;;;;;;5134403;27;20015;-69
2023/04/30 02:22:50;;;;;;;18.75;12.18;;;10.80;99.90;;;;;;5134058;27;20027;-70
2023/04/30 02:25:16;;;;;;;18.20;12.95;;;10.80;99.90;;;;;;5133584;27;20015;-70
2023/04/30 02:27:41;;;;;;;20.08;12.63;;;10.80;99.90;;;;;;5134264;27;20030;-69
2023/04/30 02:30:07;;;;;;;22.98;14.90;;;10.70;99.90;;;;;;5133969;27;20090;-70
2023/04/30 02:32:33;;;;;;;17.65;12.55;;;10.70;99.90;;;;;;5134514;27;20027;-69
2023/04/30 02:34:59;;;;;;;19.70;13.10;;;10.70;99.90;;;;;;5134572;27;20015;-70
2023/04/30 02:37:25;;;;;;;18.42;13.60;;;10.60;99.90;;;;;;5133238;27;20085;-69
2023/04/30 02:39:51;;;;;;;22.13;13.50;;;10.60;99.90;;;;;;5133528;27;20502;-69
2023/04/30 02:42:16;;;;;;;24.45;15.00;;;10.60;99.90;;;;;;5133632;27;20049;-70
2023/04/30 02:44:42;;;;;;;22.70;13.70;;;10.60;99.90;;;;;;5128018;27;20414;-70
2023/04/30 02:47:08;;;;;;;18.95;13.30;;;10.60;99.90;;;;;;5113950;28;20027;-69
2023/04/30 02:49:34;;;;;;;18.30;13.15;;;10.50;99.90;;;;;;5113706;28;20019;-69
2023/04/30 02:52:00;;;;;;;18.95;13.98;;;10.50;99.90;;;;;;5113796;28;20039;-69
2023/04/30 02:54:26;;;;;;;20.13;15.23;;;10.40;99.90;;;;;;5113039;28;20038;-69
2023/04/30 02:56:52;;;;;;;20.08;15.05;;;10.40;99.90;;;;;;5132512;27;20023;-69
2023/04/30 02:59:18;;;;;;;19.45;14.00;;;10.40;99.90;;;;;;5133628;27;20023;-69
2023/04/30 03:01:43;;;;;;;22.15;14.77;;;10.30;99.90;;;;;;5133682;27;20039;-70
2023/04/30 03:04:09;;;;;;;23.40;14.50;;;10.30;99.90;;;;;;5134054;27;20376;-70
2023/04/30 03:06:35;;;;;;;24.25;15.02;;;10.30;99.90;;;;;;5131952;27;20023;-69
2023/04/30 03:09:01;;;;;;;20.88;13.70;;;10.30;99.90;;;;;;5133521;27;20019;-70
2023/04/30 03:11:27;;;;;;;23.85;16.50;;;10.20;99.90;;;;;;5133985;27;20035;-70
2023/04/30 03:13:52;;;;;;;22.20;16.23;;;10.20;99.90;;;;;;5132990;27;20023;-69
2023/04/30 03:16:20;;;;;;;23.10;15.55;;;10.10;99.90;;;;;;5132333;27;20031;-70
2023/04/30 03:18:47;;;;;;;22.00;14.95;;;10.20;99.90;;;;;;5133790;27;20015;-69
2023/04/30 03:21:13;;;;;;;18.70;13.88;;;10.10;99.90;;;;;;5133778;27;20065;-69
2023/04/30 03:23:39;;;;;;;20.45;13.73;;;10.10;99.90;;;;;;5133447;27;20015;-69
2023/04/30 03:26:04;;;;;;;20.30;13.55;;;10.10;99.90;;;;;;5132533;27;20031;-69
2023/04/30 03:28:30;;;;;;;23.05;14.00;;;10.10;99.90;;;;;;5133518;27;20418;-70
2023/04/30 03:30:56;;;;;;;18.90;13.27;;;10.10;99.90;;;;;;5133688;27;20055;-70
2023/04/30 03:33:21;;;;;;;20.83;13.60;;;10.00;99.90;;;;;;5131960;27;20505;-69
2023/04/30 03:35:49;;;;;;;22.42;15.40;;;10.00;99.90;;;;;;5133523;27;20035;-70
2023/04/30 03:38:15;;;;;;;18.27;13.48;;;10.00;99.90;;;;;;5133222;27;20027;-70
2023/04/30 03:40:40;;;;;;;22.65;13.65;;;10.00;99.90;;;;;;5132906;27;20527;-69
2023/04/30 03:43:06;;;;;;;18.55;12.77;;;10.00;99.90;;;;;;5133695;28;20368;-70
2023/04/30 03:45:32;;;;;;;20.35;13.63;;;10.00;99.90;;;;;;5133602;28;20031;-70
2023/04/30 03:47:57;;;;;;;19.67;13.30;;;9.90;99.90;;;;;;5117448;28;20383;-69
2023/04/30 03:50:23;;;;;;;20.10;13.45;;;9.90;99.90;;;;;;5112307;28;20030;-70
2023/04/30 03:52:49;;;;;;;21.13;14.60;;;9.90;99.90;;;;;;5112886;28;20020;-69
2023/04/30 03:55:15;;;;;;;22.80;14.65;;;9.80;99.90;;;;;;5119440;27;20496;-70
2023/04/30 03:57:41;;;;;;;21.55;14.30;;;9.80;99.90;;;;;;5137766;27;20103;-69
2023/04/30 04:00:09;;;;;;;24.08;14.75;;;9.80;99.90;;;;;;5131770;27;20379;-69
2023/04/30 04:02:35;;;;;;;22.58;14.73;;;9.80;99.90;;;;;;5119861;27;20627;-70
2023/04/30 04:05:00;;;;;;;24.02;15.63;;;9.70;99.90;;;;;;5135622;27;20016;-69
2023/04/30 04:07:26;;;;;;;22.00;15.13;;;9.70;99.90;;;;;;5137224;27;20106;-69
2023/04/30 04:09:52;;;;;;;21.85;15.30;;;9.70;99.90;;;;;;5137393;27;20026;-69
2023/04/30 04:12:17;;;;;;;22.42;15.60;;;9.70;99.90;;;;;;5137429;27;20594;-69
2023/04/30 04:14:43;;;;;;;20.67;15.23;;;9.70;99.90;;;;;;5136975;27;20430;-69
2023/04/30 04:17:09;;;;;;;18.90;14.75;;;9.70;99.90;;;;;;5135430;27;20534;-69
2023/04/30 04:19:35;;;;;;;21.25;13.38;;;9.60;99.90;;;;;;5136958;27;20459;-69
2023/04/30 04:22:00;;;;;;;22.60;14.65;;;9.60;99.90;;;;;;5137004;27;20038;-69
2023/04/30 04:24:26;;;;;;;25.67;17.48;;;9.60;99.90;;;;;;5136802;27;20474;-69
2023/04/30 04:26:52;;;;;;;27.52;18.08;;;9.70;99.90;;;;;;5137172;27;20030;-69
2023/04/30 04:29:19;;;;;;;27.13;16.33;;;9.60;99.90;;;;;;5136427;27;20019;-70
2023/04/30 04:31:47;;;;;;;24.85;15.90;;;9.60;99.90;;;;;;5135646;27;20429;-69
2023/04/30 04:34:13;;;;;;;24.90;15.98;;;9.60;99.90;;;;;;5136521;27;20087;-70
2023/04/30 04:36:39;;;;;;;21.30;16.05;;;9.60;99.90;;;;;;5135931;27;20472;-69
2023/04/30 04:39:05;;;;;;;23.40;16.25;;;9.50;99.90;;;;;;5137020;27;20391;-70
2023/04/30 04:41:32;;;;;;;25.98;16.48;;;9.50;99.90;;;;;;5136812;27;20031;-70
2023/04/30 04:43:59;;;;;;;23.10;15.68;;;9.50;99.90;;;;;;5136451;27;20027;-70
2023/04/30 04:46:24;;;;;;;26.52;17.38;;;9.50;99.90;;;;;;5134696;27;20372;-70
2023/04/30 04:48:52;;;;;;;22.63;15.65;;;9.50;99.90;;;;;;5134493;27;20052;-71
2023/04/30 04:51:17;;;;;;;24.30;16.27;;;9.50;99.90;;;;;;5133408;27;20023;-69
2023/04/30 04:53:43;;;;;;;25.85;15.93;;;9.50;99.90;;;;;;5135443;27;20027;-70
2023/04/30 04:56:09;;;;;;;22.10;14.98;;;9.50;99.90;;;;;;5135932;27;20072;-70
2023/04/30 04:58:35;;;;;;;23.27;16.25;;;9.40;99.90;;;;;;5136043;27;20388;-70
2023/04/30 05:01:01;;;;;;;21.50;15.90;;;9.40;99.90;;;;;;5136194;27;20085;-69
2023/04/30 05:03:28;;;;;;;24.38;16.83;;;9.40;99.90;;;;;;5134860;27;20376;-70
2023/04/30 05:05:54;;;;;;;17.92;12.93;;;9.40;99.90;;;;;;5135872;27;20023;-70
2023/04/30 05:08:19;;;;;;;18.27;14.07;;;9.40;99.90;;;;;;5136229;27;20467;-70
2023/04/30 05:10:45;;;;;;;20.25;14.65;;;9.40;99.90;;;;;;5136024;27;20027;-70
2023/04/30 05:13:11;;;;;;;22.48;14.73;;;9.40;99.90;;;;;;5136478;27;20487;-69
2023/04/30 05:15:37;;;;;;;18.52;13.70;;;9.40;99.90;;;;;;5136160;27;20479;-70
2023/04/30 05:18:03;;;;;;;18.30;13.82;;;9.40;99.90;;;;;;5135635;27;20034;-70
2023/04/30 05:20:29;;;;;;;21.88;15.05;;;9.40;99.90;;;;;;5134717;27;20023;-70
2023/04/30 05:22:55;;;;;;;23.17;15.50;;;9.50;99.90;;;;;;5134515;27;20027;-69
2023/04/30 05:25:20;;;;;;;25.55;17.73;;;9.50;99.90;;;;;;5135870;27;20109;-70
2023/04/30 05:27:46;;;;;;;23.90;15.82;;;9.50;99.90;;;;;;5133801;27;20498;-70
2023/04/30 05:30:14;;;;;;;23.58;17.38;;;9.60;99.90;;;;;;5135750;27;20106;-69
2023/04/30 05:32:40;;;;;;;27.80;18.20;;;9.60;99.90;;;;;;5135344;27;20049;-70
2023/04/30 05:35:06;;;;;;;22.17;17.45;;;9.60;99.90;;;;;;5133653;27;20091;-70
2023/04/30 05:37:32;;;;;;;28.73;19.25;;;9.70;99.90;;;;;;5135007;27;20034;-69
2023/04/30 05:39:58;;;;;;;23.65;16.63;;;9.80;99.90;;;;;;5134294;27;20480;-69
2023/04/30 05:42:23;;;;;;;25.40;18.45;;;9.80;99.90;;;;;;5133563;27;20039;-69
2023/04/30 05:44:49;;;;;;;28.63;20.23;;;9.90;99.90;;;;;;5134320;27;20934;-70
2023/04/30 05:47:15;;;;;;;27.15;19.92;;;9.90;99.90;;;;;;5134158;27;20028;-69
2023/04/30 05:49:41;;;;;;;28.80;19.40;;;9.80;99.90;;;;;;5135541;27;20024;-69
2023/04/30 05:52:07;;;;;;;26.00;17.80;;;9.90;99.90;;;;;;5135472;27;20098;-69
2023/04/30 05:54:32;;;;;;;28.70;19.10;;;10.00;99.90;;;;;;5135214;27;20038;-69
2023/04/30 05:56:58;;;;;;;32.15;21.77;;;10.00;99.90;;;;;;5133548;27;20126;-69
2023/04/30 05:59:24;;;;;;;31.00;22.83;;;10.10;99.90;;;;;;5134517;27;20072;-69
2023/04/30 06:01:51;;;;;;;34.13;22.73;;;10.10;99.90;;;;;;5134320;27;20027;-69
2023/04/30 06:04:16;;;;;;;31.98;22.20;;;10.10;99.90;;;;;;5135324;27;20022;-69
2023/04/30 06:06:42;;;;;;;30.00;21.38;;;10.10;99.90;;;;;;5134558;27;20015;-69
2023/04/30 06:09:09;;;;;;;38.75;23.27;;;10.10;99.90;;;;;;5135091;27;20515;-69
2023/04/30 06:11:36;;;;;;;32.15;22.70;;;10.10;99.90;;;;;;5133727;27;20063;-69
2023/04/30 06:14:02;;;;;;;32.63;21.75;;;10.20;99.90;;;;;;5134496;27;20031;-69
2023/04/30 06:16:28;;;;;;;32.25;21.48;;;10.20;99.90;;;;;;5134280;27;20035;-69
2023/04/30 06:18:54;;;;;;;32.33;21.25;;;10.10;99.90;;;;;;5134075;27;20023;-69
2023/04/30 06:21:20;;;;;;;28.00;20.75;;;10.10;99.90;;;;;;5134859;27;20132;-69
2023/04/30 06:23:45;;;;;;;33.10;24.15;;;10.20;99.90;;;;;;5134691;27;20030;-69
2023/04/30 06:26:13;;;;;;;27.48;19.55;;;10.30;99.90;;;;;;5134403;27;20099;-69
2023/04/30 06:28:40;;;;;;;31.25;21.23;;;10.30;99.90;;;;;;5133408;27;20076;-69
2023/04/30 06:31:05;;;;;;;30.70;20.42;;;10.40;99.90;;;;;;5134333;27;20080;-69
2023/04/30 06:33:31;;;;;;;29.27;21.65;;;10.50;99.90;;;;;;5134028;27;20479;-70
2023/04/30 06:35:57;;;;;;;27.33;18.92;;;10.50;99.90;;;;;;5133969;27;20027;-70
2023/04/30 06:38:22;;;;;;;32.05;21.83;;;10.50;99.90;;;;;;5132648;27;20110;-70
2023/04/30 06:40:48;;;;;;;34.67;19.33;;;10.60;99.90;;;;;;5134339;27;20475;-69
2023/04/30 06:43:15;;;;;;;27.63;19.67;;;10.60;99.90;;;;;;5133716;27;20037;-70
2023/04/30 06:45:40;;;;;;;28.73;20.13;;;10.60;99.90;;;;;;5133920;27;20024;-69
2023/04/30 06:48:06;;;;;;;25.02;17.77;;;10.70;99.90;;;;;;5132151;27;20019;-69
2023/04/30 06:50:32;;;;;;;25.33;18.52;;;10.80;99.90;;;;;;5133699;27;20492;-69
2023/04/30 06:52:58;;;;;;;33.15;17.85;;;10.90;99.90;;;;;;5132254;27;20106;-69
2023/04/30 06:55:24;;;;;;;26.33;17.75;;;11.10;99.90;;;;;;5133704;27;20048;-69
2023/04/30 06:57:49;;;;;;;25.27;18.58;;;11.20;99.90;;;;;;5133523;27;20019;-68
2023/04/30 07:00:15;;;;;;;25.42;17.77;;;11.40;99.90;;;;;;5133592;27;20364;-69
2023/04/30 07:02:41;;;;;;;27.85;18.33;;;11.30;99.90;;;;;;5132770;27;20055;-70
2023/04/30 07:05:08;;;;;;;25.02;17.60;;;11.50;99.90;;;;;;5128185;27;20030;-69
2023/04/30 07:07:33;;;;;;;28.13;17.88;;;11.50;99.90;;;;;;5132395;27;20140;-69
2023/04/30 07:09:59;;;;;;;27.45;18.45;;;11.60;99.90;;;;;;5132831;27;20114;-69
2023/04/30 07:12:25;;;;;;;23.75;17.20;;;11.80;99.90;;;;;;5132988;27;20031;-70
2023/04/30 07:14:50;;;;;;;22.77;16.90;;;11.80;99.90;;;;;;5132153;27;20035;-72
2023/04/30 07:17:16;;;;;;;24.95;17.02;;;12.00;99.90;;;;;;5130048;27;20092;-69
2023/04/30 07:19:42;;;;;;;21.88;14.80;;;12.10;99.90;;;;;;5132276;27;20472;-70
2023/04/30 07:22:08;;;;;;;26.63;16.83;;;12.10;99.90;;;;;;5132666;27;20061;-69
2023/04/30 07:24:34;;;;;;;23.15;16.63;;;12.20;99.90;;;;;;5132990;27;20019;-70
2023/04/30 07:27:02;;;;;;;24.15;16.88;;;12.40;99.90;;;;;;5132783;27;20015;-69
2023/04/30 07:29:28;;;;;;;23.23;16.25;;;12.50;99.90;;;;;;5131163;27;20080;-69
2023/04/30 07:31:55;;;;;;;22.83;15.40;;;12.60;99.90;;;;;;5131441;27;20383;-70
2023/04/30 07:34:21;;;;;;;21.83;15.85;;;12.70;99.90;;;;;;5133391;27;20508;-70
2023/04/30 07:36:50;;;;;;;23.67;15.95;;;12.90;99.90;;;;;;5132921;27;20019;-70
2023/04/30 07:39:16;;;;;;;25.83;16.42;;;13.00;99.90;;;;;;5133162;27;20031;-69
2023/04/30 07:41:42;;;;;;;22.52;16.25;;;13.20;99.90;;;;;;5133284;27;20039;-70
2023/04/30 07:44:08;;;;;;;22.67;15.30;;;13.20;99.90;;;;;;5130175;27;20114;-70
2023/04/30 07:46:35;;;;;;;19.02;14.80;;;13.20;99.90;;;;;;5129778;28;20110;-70
2023/04/30 07:49:01;;;;;;;19.58;14.38;;;13.50;99.90;;;;;;5132742;27;20027;-70
2023/04/30 07:51:27;;;;;;;21.48;14.20;;;13.70;99.90;;;;;;5127308;27;20072;-70
2023/04/30 07:53:53;;;;;;;20.90;14.00;;;13.80;99.90;;;;;;5132829;27;20050;-70
2023/04/30 07:56:20;;;;;;;18.55;14.15;;;13.90;99.90;;;;;;5117247;28;20118;-71
2023/04/30 07:58:46;;;;;;;18.65;13.32;;;14.00;99.90;;;;;;5095419;28;20024;-71
2023/04/30 08:01:12;;;;;;;18.52;13.13;;;14.20;99.90;;;;;;5108576;27;20038;-70
2023/04/30 08:03:37;;;;;;;16.85;11.88;;;14.30;99.90;;;;;;5111818;28;20027;-70
2023/04/30 08:06:05;;;;;;;17.25;12.32;;;14.40;99.90;;;;;;5114278;27;20043;-70
2023/04/30 08:08:53;;;;;;;19.02;12.93;;;14.60;99.90;;;;;;5113413;28;20079;-70
2023/04/30 08:11:19;;;;;;;15.13;10.95;;;14.70;99.90;;;;;;5111952;28;20038;-71
2023/04/30 08:13:45;;;;;;;17.80;13.52;;;14.80;99.90;;;;;;5122666;27;20043;-71
2023/04/30 08:16:11;;;;;;;18.05;12.10;;;15.00;99.90;;;;;;5123331;27;20050;-71
2023/04/30 08:18:43;;;;;;;18.13;11.82;;;15.20;99.90;;;;;;5122758;28;20031;-71
2023/04/30 08:21:10;;;;;;;18.08;11.60;;;15.30;99.90;;;;;;5122154;28;20035;-72
2023/04/30 08:23:36;;;;;;;16.88;10.57;;;15.40;99.90;;;;;;5121687;28;20016;-72
2023/04/30 08:26:02;;;;;;;14.82;11.40;;;15.50;99.90;;;;;;5119486;28;20030;-70
2023/04/30 08:28:27;;;;;;;14.40;11.75;;;15.70;99.90;;;;;;5121658;27;20503;-71
2023/04/30 08:30:54;;;;;;;13.20;10.32;;;15.90;99.90;;;;;;5123684;28;20028;-70
2023/04/30 08:33:19;;;;;;;14.07;11.45;;;16.10;99.90;;;;;;5120169;28;20393;-71
2023/04/30 08:35:45;;;;;;;14.95;10.88;;;16.20;99.90;;;;;;5121034;27;20031;-70
2023/04/30 08:38:11;;;;;;;12.93;9.50;;;16.40;99.90;;;;;;5117120;27;20023;-71
2023/04/30 08:40:37;;;;;;;11.82;9.30;;;16.40;99.90;;;;;;5109820;27;20020;-71
2023/04/30 08:43:07;;;;;;;14.23;9.27;;;16.60;99.90;;;;;;5115023;27;20096;-72
2023/04/30 08:45:35;;;;;;;12.43;9.20;;;16.60;99.90;;;;;;5118419;27;20508;-71
2023/04/30 08:48:03;;;;;;;11.27;8.57;;;16.80;99.90;;;;;;5113895;27;20028;-71
2023/04/30 08:50:29;;;;;;;13.27;7.95;;;17.00;99.90;;;;;;5111873;27;20589;-72
2023/04/30 08:52:57;;;;;;;10.27;7.95;;;17.10;99.90;;;;;;5113642;27;20019;-72
2023/04/30 08:55:25;;;;;;;10.15;8.35;;;17.20;99.90;;;;;;5115444;27;20026;-72
2023/04/30 08:57:51;;;;;;;8.60;7.53;;;17.40;99.90;;;;;;5115654;27;20424;-72
2023/04/30 09:00:17;;;;;;;10.70;7.85;;;17.50;99.90;;;;;;5116182;27;20523;-72
2023/04/30 09:02:44;;;;;;;12.48;7.18;;;17.50;99.90;;;;;;5112886;27;20487;-72
2023/04/30 09:05:11;;;;;;;12.55;7.78;;;17.50;99.90;;;;;;5113748;27;20019;-72
2023/04/30 09:07:42;;;;;;;11.23;6.90;;;17.50;99.90;;;;;;5115925;27;20079;-72
2023/04/30 09:10:18;;;;;;;9.13;6.45;;;17.60;99.90;;;;;;5114814;27;20027;-72
2023/04/30 09:12:57;;;;;;;14.43;7.63;;;17.70;99.90;;;;;;5111344;27;20028;-72
2023/04/30 09:15:22;;;;;;;7.82;5.82;;;17.70;99.90;;;;;;5114543;27;20457;-72
2023/04/30 09:17:48;;;;;;;7.47;6.32;;;17.90;99.90;;;;;;5114201;27;20047;-72
2023/04/30 09:20:14;;;;;;;14.27;7.30;;;17.80;99.90;;;;;;5112069;27;20921;-72
2023/04/30 09:22:41;;;;;;;8.02;7.05;;;17.80;99.90;;;;;;5110315;27;20044;-71
2023/04/30 09:25:07;;;;;;;7.88;6.55;;;18.00;99.90;;;;;;5113581;27;20019;-72
2023/04/30 09:27:33;;;;;;;7.95;6.88;;;18.10;99.90;;;;;;5112857;27;20031;-72
2023/04/30 09:29:59;;;;;;;10.85;7.82;;;18.20;99.90;;;;;;5118698;27;21183;-72
2023/04/30 09:32:25;;;;;;;8.10;5.97;;;18.40;99.90;;;;;;5112815;27;20178;-72
2023/04/30 09:34:51;;;;;;;9.73;6.55;;;18.40;99.90;;;;;;5112749;27;20058;-72
2023/04/30 09:37:17;;;;;;;10.25;7.13;;;18.40;99.90;;;;;;5119728;27;20026;-71
2023/04/30 09:39:50;;;;;;;7.65;6.82;;;18.70;99.90;;;;;;5111796;27;20028;-72
2023/04/30 09:42:20;;;;;;;5.63;5.13;;;18.90;99.90;;;;;;5110212;27;20032;-72
2023/04/30 09:44:47;;;;;;;7.97;6.63;;;19.00;99.90;;;;;;5111503;27;20027;-72
2023/04/30 09:47:17;;;;;;;6.18;5.25;;;19.00;99.90;;;;;;5111229;27;20076;-72
2023/04/30 09:49:47;;;;;;;8.43;6.07;;;19.20;99.90;;;;;;5117124;27;20126;-72
2023/04/30 09:52:14;;;;;;;5.97;4.93;;;19.10;99.90;;;;;;5110334;27;20059;-72
2023/04/30 09:54:42;;;;;;;6.60;5.35;;;19.10;99.90;;;;;;5111351;27;20008;-71
2023/04/30 09:57:11;;;;;;;8.32;5.18;;;19.30;99.90;;;;;;5119378;27;21172;-72
2023/04/30 09:59:38;;;;;;;11.77;6.15;;;19.40;99.90;;;;;;5113656;27;20022;-72
2023/04/30 10:02:08;;;;;;;10.73;6.43;;;19.60;99.90;;;;;;5112530;27;20407;-72
2023/04/30 10:04:35;;;;;;;5.30;4.78;;;19.40;99.90;;;;;;5113636;27;20085;-72
2023/04/30 10:07:18;;;;;;;6.78;5.68;;;19.40;99.90;;;;;;5113036;27;20030;-72
2023/04/30 10:09:51;;;;;;;6.97;6.05;;;19.50;99.90;;;;;;5112604;27;20077;-72
2023/04/30 10:12:24;;;;;;;5.85;4.60;;;19.60;99.90;;;;;;5110464;27;20107;-72
2023/04/30 10:15:15;;;;;;;7.15;5.35;;;19.50;99.90;;;;;;5110467;27;20046;-71
2023/04/30 10:17:46;;;;;;;5.95;5.10;;;19.50;99.90;;;;;;5113092;27;20483;-72
2023/04/30 10:20:12;;;;;;;5.22;4.68;;;19.70;99.90;;;;;;5111142;27;20106;-72
2023/04/30 10:22:40;;;;;;;5.82;4.45;;;19.80;99.90;;;;;;5114449;27;20081;-72
2023/04/30 10:25:10;;;;;;;7.20;4.85;;;19.80;99.90;;;;;;5115686;27;20020;-71
2023/04/30 10:27:35;;;;;;;9.00;4.88;;;20.00;99.90;;;;;;5115798;27;20027;-72
2023/04/30 10:30:02;;;;;;;6.78;4.63;;;19.90;99.90;;;;;;5112920;27;20068;-72
2023/04/30 10:32:56;;;;;;;5.68;3.60;;;19.80;99.90;;;;;;5109035;27;20063;-71
2023/04/30 10:35:42;;;;;;;5.07;3.88;;;19.90;99.90;;;;;;5110828;27;20072;-71
2023/04/30 10:38:26;;;;;;;4.15;3.72;;;20.10;99.90;;;;;;5108980;27;20035;-72
2023/04/30 10:41:00;;;;;;;6.00;5.15;;;20.40;99.90;;;;;;5110484;27;20039;-72
2023/04/30 10:43:28;;;;;;;5.97;5.03;;;20.50;99.90;;;;;;5110411;27;20035;-71
2023/04/30 10:45:58;;;;;;;4.78;4.38;;;20.20;99.90;;;;;;5110030;27;20023;-72
2023/04/30 10:48:24;;;;;;;5.45;4.55;;;20.50;99.90;;;;;;5111066;27;20120;-72
2023/04/30 10:51:00;;;;;;;5.97;4.60;;;20.60;99.90;;;;;;5109743;27;20024;-72
2023/04/30 10:53:30;;;;;;;7.50;5.28;;;20.70;99.90;;;;;;5110695;27;20032;-72
2023/04/30 10:56:05;;;;;;;8.00;5.13;;;20.80;99.90;;;;;;5109229;27;21371;-72
2023/04/30 10:58:35;;;;;;;7.03;4.97;;;20.60;99.90;;;;;;5109557;27;20035;-72
2023/04/30 11:01:13;;;;;;;4.50;4.10;;;20.60;99.90;;;;;;5114894;27;20502;-72
2023/04/30 11:04:02;;;;;;;4.93;4.00;;;20.70;99.90;;;;;;5110106;27;20024;-72
2023/04/30 11:06:50;;;;;;;6.80;3.92;;;20.80;99.90;;;;;;5108956;27;20106;-71
2023/04/30 11:09:16;;;;;;;5.38;4.35;;;21.00;99.90;;;;;;5110307;27;20019;-72
2023/04/30 11:11:44;;;;;;;8.32;4.78;;;20.80;99.90;;;;;;5110308;27;20956;-72
2023/04/30 11:14:11;;;;;;;3.30;3.00;;;20.70;99.90;;;;;;5113145;27;20035;-72
2023/04/30 11:16:37;;;;;;;3.35;2.67;;;20.70;99.90;;;;;;5112386;27;20494;-71
2023/04/30 11:19:09;;;;;;;4.75;4.18;;;20.90;99.90;;;;;;5109600;27;20027;-71
2023/04/30 11:21:58;;;;;;;4.43;4.03;;;21.40;99.90;;;;;;5111322;27;20031;-71
2023/04/30 11:24:59;;;;;;;7.28;5.63;;;21.60;99.90;;;;;;5113120;27;20055;-72
2023/04/30 11:27:27;;;;;;;4.32;3.70;;;21.50;99.90;;;;;;5110523;27;20486;-72
2023/04/30 11:29:54;;;;;;;4.65;3.40;;;21.70;99.90;;;;;;5116028;27;20118;-70
2023/04/30 11:32:23;;;;;;;3.83;3.53;;;21.70;99.90;;;;;;5112795;27;20027;-72
2023/04/30 11:34:49;;;;;;;4.97;3.90;;;21.70;99.90;;;;;;5115761;27;20041;-71
2023/04/30 11:37:29;;;;;;;7.07;5.45;;;21.50;99.90;;;;;;5113133;28;20031;-72
2023/04/30 11:39:58;;;;;;;4.38;3.97;;;21.50;99.90;;;;;;5109268;27;20425;-71
2023/04/30 11:42:24;;;;;;;5.00;4.47;;;21.80;99.90;;;;;;5110330;27;20040;-71
2023/04/30 11:44:50;;;;;;;4.78;3.80;;;21.90;99.90;;;;;;5115844;28;20098;-71
2023/04/30 11:47:15;;;;;;;4.22;3.80;;;22.00;99.90;;;;;;5115076;28;20407;-72
2023/04/30 11:49:42;;;;;;;4.53;4.13;;;21.90;99.90;;;;;;5111836;28;20035;-71
2023/04/30 11:52:08;;;;;;;4.90;4.50;;;21.90;99.90;;;;;;5111934;28;20483;-72
2023/04/30 11:54:37;;;;;;;4.95;4.40;;;22.00;99.90;;;;;;5114890;27;20107;-73
2023/04/30 11:57:04;;;;;;;4.63;4.22;;;21.90;99.90;;;;;;5111207;28;20092;-72
2023/04/30 11:59:31;;;;;;;5.72;4.40;;;21.80;99.90;;;;;;5111213;27;20371;-72
2023/04/30 12:01:57;;;;;;;6.30;4.18;;;21.80;99.90;;;;;;5109459;28;20118;-72
2023/04/30 12:04:23;;;;;;;3.80;3.30;;;21.90;99.90;;;;;;5113193;27;20028;-71
2023/04/30 12:06:49;;;;;;;3.90;3.50;;;21.90;99.90;;;;;;5109535;27;20547;-72
2023/04/30 12:09:15;;;;;;;5.20;4.70;;;21.90;99.90;;;;;;5107894;28;20051;-72
2023/04/30 12:11:41;;;;;;;5.90;4.63;;;21.80;99.90;;;;;;5114649;28;20526;-72
2023/04/30 12:14:11;;;;;;;5.22;4.70;;;22.00;99.90;;;;;;5116436;27;20039;-72
2023/04/30 12:16:50;;;;;;;7.47;4.70;;;22.00;99.90;;;;;;5114385;27;20088;-72
2023/04/30 12:19:17;;;;;;;4.40;4.00;;;22.10;99.90;;;;;;5117317;27;20133;-72
2023/04/30 12:21:48;;;;;;;4.20;3.75;;;21.90;99.90;;;;;;5116991;27;20032;-72
2023/04/30 12:24:18;;;;;;;4.13;3.67;;;21.40;99.90;;;;;;5112092;27;20043;-71
2023/04/30 12:26:44;;;;;;;4.13;3.72;;;21.50;99.90;;;;;;5113691;27;20046;-72
2023/04/30 12:29:17;;;;;;;5.05;3.60;;;21.60;99.90;;;;;;5114539;27;20020;-72
2023/04/30 12:31:44;;;;;;;5.20;4.60;;;21.70;99.90;;;;;;5115020;27;20027;-72
2023/04/30 12:34:12;;;;;;;4.75;3.60;;;21.90;99.90;;;;;;5117268;27;20108;-72
2023/04/30 12:36:41;;;;;;;7.40;3.75;;;22.00;99.90;;;;;;5113958;27;20513;-72
2023/04/30 12:39:09;;;;;;;4.95;3.88;;;22.00;99.90;;;;;;5115298;27;20030;-72
2023/04/30 12:41:44;;;;;;;6.35;3.75;;;22.00;99.90;;;;;;5118330;27;20031;-72